createdAt,value
2022-08-05T00:01:28.059Z,10.73
2022-08-05T00:03:57.109Z,9.45
2022-08-05T00:06:32.228Z,9.60
2022-08-05T00:11:20.622Z,9.68
2022-08-05T00:13:55.697Z,9.63
2022-08-05T00:16:35.431Z,14.45
2022-08-05T00:19:04.109Z,10.95
2022-08-05T00:21:30.838Z,7.72
2022-08-05T00:24:10.677Z,9.27
2022-08-05T00:26:38.553Z,12.23
2022-08-05T00:29:05.104Z,9.65
2022-08-05T00:31:54.008Z,8.23
2022-08-05T00:34:55.704Z,8.77
2022-08-05T00:37:09.902Z,7.45
2022-08-05T00:39:57.217Z,10.40
2022-08-05T00:42:37.156Z,12.40
2022-08-05T00:45:08.433Z,14.50
2022-08-05T00:47:56.985Z,11.90
2022-08-05T00:50:25.229Z,11.07
2022-08-05T00:52:53.335Z,15.50
2022-08-05T00:55:21.660Z,7.97
2022-08-05T00:57:57.854Z,9.68
2022-08-05T01:00:30.404Z,10.77
2022-08-05T01:02:59.803Z,10.23
2022-08-05T01:08:42.277Z,9.15
2022-08-05T01:10:52.322Z,9.60
2022-08-05T01:13:57.494Z,9.35
2022-08-05T01:16:45.041Z,7.47
2022-08-05T01:19:46.358Z,7.75
2022-08-05T01:22:31.817Z,8.13
2022-08-05T01:25:16.952Z,14.45
2022-08-05T01:28:06.288Z,12.73
2022-08-05T01:30:39.815Z,10.55
2022-08-05T01:33:21.736Z,10.23
2022-08-05T01:35:55.431Z,11.25
2022-08-05T01:38:29.322Z,9.50
2022-08-05T01:41:01.652Z,11.35
2022-08-05T01:43:29.808Z,10.85
2022-08-05T01:45:57.669Z,7.65
2022-08-05T01:48:31.945Z,10.82
2022-08-05T01:51:00.059Z,15.70
2022-08-05T01:53:57.199Z,8.60
2022-08-05T01:58:29.496Z,9.00
2022-08-05T01:59:16.672Z,12.70
2022-08-05T02:01:45.205Z,14.27
2022-08-05T02:04:16.569Z,11.77
2022-08-05T02:06:45.025Z,7.90
2022-08-05T02:09:12.003Z,10.52
2022-08-05T02:11:52.536Z,11.90
2022-08-05T02:18:30.855Z,9.45
2022-08-05T02:20:43.940Z,12.40
2022-08-05T02:23:14.918Z,12.50
2022-08-05T02:25:50.012Z,11.60
2022-08-05T02:28:28.903Z,12.90
2022-08-05T02:31:22.811Z,12.07
2022-08-05T02:33:58.816Z,9.98
2022-08-05T02:36:31.338Z,17.50
2022-08-05T02:39:00.207Z,10.38
2022-08-05T02:41:28.924Z,12.82
2022-08-05T02:44:13.307Z,14.93
2022-08-05T02:46:43.863Z,10.10
2022-08-05T02:49:21.861Z,8.25
2022-08-05T02:52:03.532Z,11.70
2022-08-05T02:54:35.999Z,12.55
2022-08-05T02:57:10.304Z,9.68
2022-08-05T02:59:54.208Z,10.45
2022-08-05T03:02:24.363Z,12.60
2022-08-05T03:04:56.301Z,11.07
2022-08-05T03:07:40.593Z,10.73
2022-08-05T03:10:11.151Z,10.95
2022-08-05T03:12:40.341Z,10.02
2022-08-05T03:15:10.187Z,15.15
2022-08-05T03:17:41.614Z,11.35
2022-08-05T03:20:09.236Z,11.45
2022-08-05T03:22:36.979Z,11.18
2022-08-05T03:25:11.777Z,11.25
2022-08-05T03:28:00.268Z,13.45
2022-08-05T03:30:33.637Z,9.20
2022-08-05T03:33:06.399Z,12.75
2022-08-05T03:35:41.196Z,12.52
2022-08-05T03:38:14.287Z,11.80
2022-08-05T03:40:47.213Z,10.55
2022-08-05T03:44:08.699Z,21.10
2022-08-05T03:46:03.327Z,11.77
2022-08-05T03:48:30.860Z,10.60
2022-08-05T03:52:38.911Z,9.02
2022-08-05T03:55:50.065Z,9.43
2022-08-05T03:57:16.009Z,9.40
2022-08-05T04:00:04.180Z,13.45
2022-08-05T04:02:52.322Z,12.65
2022-08-05T04:05:33.134Z,14.50
2022-08-05T04:08:22.471Z,8.70
2022-08-05T04:10:53.375Z,11.20
2022-08-05T04:13:21.626Z,8.98
2022-08-05T04:16:02.830Z,11.20
2022-08-05T04:18:30.364Z,10.10
2022-08-05T04:20:57.657Z,12.38
2022-08-05T04:24:04.738Z,9.68
2022-08-05T04:26:15.392Z,11.05
2022-08-05T04:28:50.794Z,11.07
2022-08-05T04:33:54.829Z,9.52
2022-08-05T04:36:46.006Z,10.57
2022-08-05T04:39:07.865Z,12.68
2022-08-05T04:41:37.873Z,13.68
2022-08-05T04:44:08.824Z,8.63
2022-08-05T04:46:37.596Z,12.53
2022-08-05T04:49:06.054Z,10.60
2022-08-05T04:51:39.095Z,7.95
2022-08-05T04:54:05.734Z,11.68
2022-08-05T04:58:57.623Z,10.88
2022-08-05T05:02:05.532Z,12.80
2022-08-05T05:04:12.121Z,11.52
2022-08-05T05:06:44.820Z,14.18
2022-08-05T05:09:17.230Z,9.68
2022-08-05T05:11:53.035Z,16.63
2022-08-05T05:14:31.262Z,9.98
2022-08-05T05:17:02.048Z,11.60
2022-08-05T05:19:37.162Z,10.30
2022-08-05T05:22:23.011Z,10.23
2022-08-05T05:24:57.252Z,14.85
2022-08-05T05:27:44.750Z,13.27
2022-08-05T05:30:29.817Z,16.58
2022-08-05T05:33:08.778Z,14.15
2022-08-05T05:35:43.920Z,11.30
2022-08-05T05:38:12.921Z,9.93
2022-08-05T05:40:46.631Z,16.90
2022-08-05T05:43:16.149Z,11.02
2022-08-05T05:45:49.236Z,10.63
2022-08-05T05:48:16.167Z,11.48
2022-08-05T05:50:45.568Z,15.23
2022-08-05T05:53:22.308Z,9.93
2022-08-05T05:55:51.728Z,13.90
2022-08-05T05:58:31.976Z,12.98
2022-08-05T06:01:12.798Z,18.40
2022-08-05T06:04:01.160Z,17.38
2022-08-05T06:08:59.076Z,15.70
2022-08-05T06:11:26.174Z,11.60
2022-08-05T06:16:28.883Z,14.98
2022-08-05T06:19:00.195Z,11.27
2022-08-05T06:21:35.696Z,10.95
2022-08-05T06:24:05.902Z,15.93
2022-08-05T06:26:34.004Z,17.50
2022-08-05T06:29:06.466Z,30.83
2022-08-05T06:34:10.716Z,21.52
2022-08-05T06:39:04.086Z,33.22
2022-08-05T06:41:30.789Z,17.55
2022-08-05T06:44:01.378Z,76.97
2022-08-05T06:46:30.086Z,22.08
2022-08-05T06:48:59.224Z,26.83
2022-08-05T06:51:30.183Z,19.55
2022-08-05T06:56:26.285Z,16.55
2022-08-05T06:58:53.964Z,24.15
2022-08-05T07:01:21.117Z,15.05
2022-08-05T07:03:49.973Z,13.43
2022-08-05T07:06:17.383Z,13.85
2022-08-05T07:08:51.812Z,20.05
2022-08-05T07:11:22.620Z,21.95
2022-08-05T07:14:20.630Z,17.08
2022-08-05T07:18:00.418Z,12.73
2022-08-05T07:20:32.460Z,18.40
2022-08-05T07:22:38.389Z,19.85
2022-08-05T07:25:54.908Z,12.15
2022-08-05T07:27:57.637Z,20.15
2022-08-05T07:30:38.579Z,23.38
2022-08-05T07:33:10.423Z,44.85
2022-08-05T07:36:03.792Z,47.17
2022-08-05T07:38:33.532Z,17.05
2022-08-05T07:41:34.999Z,15.68
2022-08-05T07:43:59.354Z,14.13
2022-08-05T07:46:28.265Z,19.02
2022-08-05T07:49:02.030Z,18.73
2022-08-05T07:51:37.581Z,16.80
2022-08-05T07:54:08.561Z,11.85
2022-08-05T07:56:59.931Z,12.88
2022-08-05T07:59:38.244Z,10.98
2022-08-05T08:02:16.934Z,18.30
2022-08-05T08:04:48.759Z,11.75
2022-08-05T08:07:17.709Z,9.80
2022-08-05T08:09:44.962Z,9.52
2022-08-05T08:12:33.446Z,10.00
2022-08-05T08:15:03.533Z,12.43
2022-08-05T08:17:32.076Z,15.75
2022-08-05T08:20:21.925Z,12.02
2022-08-05T08:23:00.155Z,11.57
2022-08-05T08:26:00.537Z,19.10
2022-08-05T08:28:18.868Z,11.18
2022-08-05T08:31:02.730Z,15.10
2022-08-05T08:33:35.944Z,9.32
2022-08-05T08:36:38.736Z,11.20
2022-08-05T08:38:55.563Z,9.07
2022-08-05T08:41:26.282Z,16.60
2022-08-05T08:45:23.704Z,9.25
2022-08-05T08:47:02.809Z,15.70
2022-08-05T08:50:05.894Z,9.32
2022-08-05T08:52:25.208Z,14.18
2022-08-05T08:54:53.471Z,11.55
2022-08-05T08:57:20.356Z,12.10
2022-08-05T08:59:50.575Z,12.93
2022-08-05T09:02:22.024Z,17.23
2022-08-05T09:07:28.994Z,13.95
2022-08-05T09:09:56.303Z,11.20
2022-08-05T09:12:27.710Z,12.50
2022-08-05T09:15:03.925Z,15.18
2022-08-05T09:17:43.128Z,14.05
2022-08-05T09:20:36.458Z,14.80
2022-08-05T09:23:09.526Z,14.20
2022-08-05T09:26:01.098Z,19.80
2022-08-05T09:28:32.629Z,13.60
2022-08-05T09:31:23.011Z,17.77
2022-08-05T09:33:59.523Z,13.20
2022-08-05T09:36:39.104Z,17.88
2022-08-05T09:39:24.570Z,12.25
2022-08-05T09:42:08.523Z,12.48
2022-08-05T09:44:39.085Z,15.02
2022-08-05T09:47:15.682Z,10.70
2022-08-05T09:50:01.450Z,17.45
2022-08-05T09:52:31.205Z,12.65
2022-08-05T09:54:59.752Z,11.88
2022-08-05T09:57:39.888Z,17.35
2022-08-05T10:00:13.334Z,16.42
2022-08-05T10:02:43.588Z,17.73
2022-08-05T10:05:14.497Z,11.43
2022-08-05T10:08:10.961Z,15.38
2022-08-05T10:10:50.401Z,10.63
2022-08-05T10:13:47.222Z,10.35
2022-08-05T10:16:41.738Z,9.80
2022-08-05T10:19:23.594Z,12.25
2022-08-05T10:21:59.161Z,13.65
2022-08-05T10:24:26.995Z,15.32
2022-08-05T10:26:56.222Z,12.07
2022-08-05T10:30:06.026Z,9.90
2022-08-05T10:32:52.054Z,10.75
2022-08-05T10:35:03.456Z,13.20
2022-08-05T10:37:37.166Z,11.98
2022-08-05T10:40:28.107Z,15.57
2022-08-05T10:43:01.372Z,13.80
2022-08-05T10:45:40.089Z,11.45
2022-08-05T10:48:36.053Z,12.07
2022-08-05T10:51:21.942Z,11.02
2022-08-05T10:53:58.586Z,11.93
2022-08-05T10:56:30.547Z,10.20
2022-08-05T10:59:12.154Z,12.55
2022-08-05T11:01:54.527Z,10.45
2022-08-05T11:04:31.801Z,7.97
2022-08-05T11:07:06.436Z,9.75
2022-08-05T11:09:47.552Z,10.65
2022-08-05T11:12:26.667Z,9.02
2022-08-05T11:15:11.558Z,8.63
2022-08-05T11:18:09.656Z,7.78
2022-08-05T11:20:44.663Z,8.20
2022-08-05T11:23:33.264Z,11.30
2022-08-05T11:26:32.679Z,7.05
2022-08-05T11:29:12.146Z,8.18
2022-08-05T11:31:57.769Z,10.95
2022-08-05T11:34:39.059Z,7.15
2022-08-05T11:38:28.001Z,6.82
2022-08-05T11:40:00.296Z,6.38
2022-08-05T11:42:40.378Z,7.40
2022-08-05T11:45:14.219Z,7.55
2022-08-05T11:47:54.444Z,8.10
2022-08-05T11:50:21.843Z,7.68
2022-08-05T11:52:50.247Z,8.00
2022-08-05T11:55:18.683Z,8.27
2022-08-05T11:58:09.328Z,8.60
2022-08-05T12:00:38.655Z,8.02
2022-08-05T12:03:29.349Z,12.02
2022-08-05T12:06:06.443Z,10.32
2022-08-05T12:08:50.884Z,12.80
2022-08-05T12:11:22.756Z,6.03
2022-08-05T12:14:04.107Z,6.32
2022-08-05T12:16:39.006Z,11.00
2022-08-05T12:19:08.330Z,7.15
2022-08-05T12:21:42.455Z,6.45
2022-08-05T12:24:17.676Z,9.45
2022-08-05T12:26:45.973Z,7.72
2022-08-05T12:29:16.374Z,8.90
2022-08-05T12:31:53.476Z,7.63
2022-08-05T12:34:25.827Z,11.73
2022-08-05T12:36:53.573Z,8.10
2022-08-05T12:39:20.989Z,7.20
2022-08-05T12:41:48.693Z,9.18
2022-08-05T12:44:28.712Z,10.07
2022-08-05T12:47:00.222Z,7.50
2022-08-05T12:50:03.698Z,5.30
2022-08-05T12:52:33.935Z,8.18
2022-08-05T12:55:28.376Z,5.28
2022-08-05T12:58:49.880Z,7.45
2022-08-05T13:02:02.673Z,6.47
2022-08-05T13:03:43.165Z,4.68
2022-08-05T13:06:14.683Z,8.15
2022-08-05T13:08:51.479Z,5.95
2022-08-05T13:11:47.045Z,6.13
2022-08-05T13:16:59.566Z,9.18
2022-08-05T13:19:52.003Z,7.30
2022-08-05T13:22:29.138Z,6.95
2022-08-05T13:27:37.685Z,7.38
2022-08-05T13:30:34.757Z,8.98
2022-08-05T13:32:57.432Z,9.43
2022-08-05T13:38:28.657Z,6.68
2022-08-05T13:41:00.671Z,5.22
2022-08-05T13:43:44.736Z,4.15
2022-08-05T13:46:14.421Z,4.43
2022-08-05T13:48:57.850Z,3.80
2022-08-05T13:51:30.100Z,4.97
2022-08-05T13:54:11.812Z,7.80
2022-08-05T13:56:45.597Z,4.18
2022-08-05T13:59:21.399Z,4.57
2022-08-05T14:01:58.524Z,4.68
2022-08-05T14:04:56.404Z,9.27
2022-08-05T14:08:00.560Z,4.32
2022-08-05T14:10:28.748Z,4.95
2022-08-05T14:12:58.282Z,7.75
2022-08-05T14:16:08.319Z,5.35
2022-08-05T14:18:14.652Z,5.72
2022-08-05T14:20:47.115Z,4.60
2022-08-05T14:23:19.171Z,7.13
2022-08-05T14:25:53.813Z,7.15
2022-08-05T14:28:26.732Z,5.03
2022-08-05T14:30:54.867Z,7.57
2022-08-05T14:33:22.635Z,7.70
2022-08-05T14:35:51.863Z,4.63
2022-08-05T14:38:27.892Z,7.18
2022-08-05T14:40:59.604Z,6.75
2022-08-05T14:44:01.905Z,9.88
2022-08-05T14:46:13.060Z,9.02
2022-08-05T14:48:39.643Z,6.05
2022-08-05T14:51:06.301Z,6.45
2022-08-05T14:53:44.417Z,4.97
2022-08-05T14:56:13.315Z,7.53
2022-08-05T14:58:47.871Z,4.80
2022-08-05T15:01:24.331Z,6.18
2022-08-05T15:04:11.582Z,9.70
2022-08-05T15:06:39.120Z,4.22
2022-08-05T15:11:51.539Z,7.53
2022-08-05T15:14:34.595Z,4.50
2022-08-05T15:17:14.600Z,5.40
2022-08-05T15:19:55.496Z,5.15
2022-08-05T15:22:22.227Z,5.53
2022-08-05T15:24:54.365Z,5.97
2022-08-05T15:27:20.880Z,6.47
2022-08-05T15:29:47.742Z,8.88
2022-08-05T15:32:16.489Z,5.35
2022-08-05T15:34:44.364Z,4.95
2022-08-05T15:37:15.573Z,7.43
2022-08-05T15:40:58.256Z,4.22
2022-08-05T15:42:56.189Z,7.32
2022-08-05T15:45:27.119Z,6.05
2022-08-05T15:48:05.575Z,6.82
2022-08-05T15:50:33.424Z,5.07
2022-08-05T15:53:04.145Z,5.43
2022-08-05T15:58:19.061Z,5.40
2022-08-05T16:00:56.988Z,5.72
2022-08-05T16:03:32.741Z,4.63
2022-08-05T16:06:00.843Z,5.22
2022-08-05T16:08:30.579Z,5.30
2022-08-05T16:10:58.194Z,9.20
2022-08-05T16:13:34.071Z,6.97
2022-08-05T16:16:03.324Z,6.07
2022-08-05T16:18:30.652Z,6.40
2022-08-05T16:20:58.546Z,5.75
2022-08-05T16:23:25.452Z,5.85
2022-08-05T16:26:06.706Z,6.78
2022-08-05T16:28:36.114Z,7.10
2022-08-05T16:31:08.275Z,7.10
2022-08-05T16:33:41.505Z,6.65
2022-08-05T16:36:09.279Z,6.43
2022-08-05T16:38:35.836Z,7.13
2022-08-05T16:43:34.080Z,8.63
2022-08-05T16:46:12.927Z,8.65
2022-08-05T16:48:49.581Z,6.70
2022-08-05T16:51:16.327Z,8.40
2022-08-05T16:54:04.852Z,6.22
2022-08-05T16:56:31.155Z,7.63
2022-08-05T17:01:21.429Z,6.93
2022-08-05T17:03:51.974Z,17.00
2022-08-05T17:06:19.341Z,12.05
2022-08-05T17:08:52.449Z,6.40
2022-08-05T17:11:25.459Z,5.75
2022-08-05T17:14:00.379Z,6.65
2022-08-05T17:16:38.123Z,8.00
2022-08-05T17:19:07.878Z,5.88
2022-08-05T17:21:37.678Z,7.97
2022-08-05T17:24:28.255Z,7.78
2022-08-05T17:26:57.761Z,7.63
2022-08-05T17:29:33.250Z,7.40
2022-08-05T17:32:08.646Z,6.50
2022-08-05T17:34:39.244Z,7.82
2022-08-05T17:37:35.903Z,8.07
2022-08-05T17:39:55.208Z,7.00
2022-08-05T17:42:28.913Z,8.98
2022-08-05T17:44:58.999Z,8.13
2022-08-05T17:47:26.863Z,23.95
2022-08-05T17:50:04.016Z,9.93
2022-08-05T17:52:53.296Z,16.85
2022-08-05T17:55:22.591Z,8.20
2022-08-05T17:57:54.248Z,9.32
2022-08-05T18:00:20.900Z,7.68
2022-08-05T18:02:55.365Z,10.05
2022-08-05T18:05:22.124Z,10.48
2022-08-05T18:07:49.133Z,9.38
2022-08-05T18:10:21.095Z,12.40
2022-08-05T18:15:15.194Z,11.25
2022-08-05T18:18:00.133Z,9.18
2022-08-05T18:20:32.520Z,7.90
2022-08-05T18:23:00.380Z,15.35
2022-08-05T18:25:33.003Z,14.95
2022-08-05T18:28:01.657Z,11.23
2022-08-05T18:30:33.062Z,13.93
2022-08-05T18:33:00.964Z,14.13
2022-08-05T18:36:01.006Z,11.93
2022-08-05T18:38:16.492Z,12.02
2022-08-05T18:41:56.810Z,11.23
2022-08-05T18:43:38.266Z,10.85
2022-08-05T18:46:10.255Z,10.40
2022-08-05T18:48:41.671Z,12.23
2022-08-05T18:52:06.917Z,12.00
2022-08-05T18:54:14.585Z,10.70
2022-08-05T18:56:41.706Z,16.60
2022-08-05T18:59:42.942Z,14.00
2022-08-05T19:02:11.097Z,9.20
2022-08-05T19:05:02.964Z,10.60
2022-08-05T19:07:46.021Z,13.45
2022-08-05T19:10:17.198Z,11.65
2022-08-05T19:12:46.245Z,11.80
2022-08-05T19:15:56.798Z,17.50
2022-08-05T19:18:09.109Z,15.90
2022-08-05T19:20:37.069Z,14.75
2022-08-05T19:23:08.539Z,10.45
2022-08-05T19:26:01.021Z,11.80
2022-08-05T19:28:28.538Z,16.02
2022-08-05T19:30:55.873Z,13.55
2022-08-05T19:33:35.923Z,12.25
2022-08-05T19:36:06.350Z,13.88
2022-08-05T19:38:35.575Z,13.55
2022-08-05T19:41:06.714Z,11.68
2022-08-05T19:44:05.995Z,12.20
2022-08-05T19:46:30.394Z,21.23
2022-08-05T19:49:03.287Z,16.08
2022-08-05T19:52:04.277Z,20.83
2022-08-05T19:54:29.476Z,18.45
2022-08-05T19:56:59.777Z,15.50
2022-08-05T19:59:54.949Z,15.80
2022-08-05T20:02:23.048Z,15.20
2022-08-05T20:07:15.110Z,16.10
2022-08-05T20:09:54.433Z,20.33
2022-08-05T20:12:23.739Z,14.00
2022-08-05T20:14:52.291Z,13.60
2022-08-05T20:19:41.407Z,15.02
2022-08-05T20:22:09.738Z,18.08
2022-08-05T20:24:36.388Z,19.00
2022-08-05T20:27:04.716Z,16.95
2022-08-05T20:29:38.417Z,18.80
2022-08-05T20:32:06.563Z,19.88
2022-08-05T20:34:33.211Z,20.55
2022-08-05T20:37:00.835Z,16.30
2022-08-05T20:39:36.601Z,10.90
2022-08-05T20:42:04.551Z,17.40
2022-08-05T20:44:33.043Z,16.55
2022-08-05T20:47:06.699Z,15.15
2022-08-05T20:49:39.521Z,37.83
2022-08-05T20:52:07.568Z,21.50
2022-08-05T20:54:57.641Z,18.58
2022-08-05T20:57:24.578Z,13.75
2022-08-05T21:00:40.962Z,20.13
2022-08-05T21:03:01.246Z,12.40
2022-08-05T21:05:38.118Z,16.15
2022-08-05T21:08:14.933Z,18.30
2022-08-05T21:10:48.481Z,17.25
2022-08-05T21:13:26.106Z,16.70
2022-08-05T21:15:54.356Z,23.15
2022-08-05T21:18:23.347Z,15.38
2022-08-05T21:20:50.250Z,16.63
2022-08-05T21:23:16.809Z,20.35
2022-08-05T21:25:44.791Z,19.13
2022-08-05T21:28:12.040Z,18.67
2022-08-05T21:30:39.673Z,17.50
2022-08-05T21:33:22.117Z,16.30
2022-08-05T21:35:58.374Z,18.40
2022-08-05T21:38:27.537Z,18.20
2022-08-05T21:40:54.334Z,21.95
2022-08-05T21:43:24.687Z,17.77
2022-08-05T21:45:57.374Z,20.48
2022-08-05T21:48:28.021Z,19.42
2022-08-05T21:50:55.184Z,20.42
2022-08-05T21:53:27.247Z,19.60
2022-08-05T21:56:04.781Z,19.55
2022-08-05T21:58:42.120Z,16.73
2022-08-05T22:01:10.821Z,17.75
2022-08-05T22:03:52.836Z,21.55
2022-08-05T22:06:22.346Z,19.88
2022-08-05T22:08:51.814Z,21.02
2022-08-05T22:11:34.740Z,17.42
2022-08-05T22:14:35.141Z,28.65
2022-08-05T22:16:56.081Z,22.55
2022-08-05T22:22:11.220Z,18.50
2022-08-05T22:24:57.714Z,23.20
2022-08-05T22:28:09.184Z,19.98
2022-08-05T22:30:34.863Z,19.08
2022-08-05T22:33:03.257Z,19.38
2022-08-05T22:35:30.993Z,18.98
2022-08-05T22:38:05.930Z,18.08
2022-08-05T22:40:36.568Z,18.00
2022-08-05T22:43:05.145Z,22.77
2022-08-05T22:45:31.837Z,22.23
2022-08-05T22:47:59.417Z,17.60
2022-08-05T22:50:26.810Z,19.58
2022-08-05T22:52:55.416Z,16.80
2022-08-05T22:55:23.731Z,21.50
2022-08-05T22:57:52.316Z,21.80
2022-08-05T23:00:21.524Z,18.08
2022-08-05T23:02:49.860Z,22.85
2022-08-05T23:05:17.696Z,21.10
2022-08-05T23:07:49.612Z,21.42
2022-08-05T23:10:19.713Z,23.83
2022-08-05T23:12:51.686Z,21.10
2022-08-05T23:15:27.148Z,23.95
2022-08-05T23:18:00.433Z,24.17
2022-08-05T23:20:28.528Z,24.55
2022-08-05T23:22:56.251Z,21.63
2022-08-05T23:25:52.294Z,21.40
2022-08-05T23:28:11.474Z,21.17
2022-08-05T23:30:40.280Z,22.83
2022-08-05T23:33:22.245Z,17.63
2022-08-05T23:35:56.208Z,22.65
2022-08-05T23:38:24.255Z,25.55
2022-08-05T23:40:52.693Z,21.42
2022-08-05T23:43:24.857Z,28.02
2022-08-05T23:46:03.920Z,21.48
2022-08-05T23:48:30.493Z,19.48
2022-08-05T23:50:57.072Z,22.35
2022-08-05T23:53:28.346Z,27.00
2022-08-05T23:56:12.161Z,22.50
2022-08-05T23:58:38.821Z,22.95
